sensor_id;sensor_type;location;lat;lon;timestamp;temperature;humidity
16955;DHT22;8594;52.052;8.354;2023-12-20T00:00:37;8.80;99.90
16955;DHT22;8594;52.052;8.354;2023-12-20T00:03:04;8.80;99.90
16955;DHT22;8594;52.052;8.354;2023-12-20T00:05:31;8.90;99.90
16955;DHT22;8594;52.052;8.354;2023-12-20T00:07:58;8.70;99.90
16955;DHT22;8594;52.052;8.354;2023-12-20T00:10:25;8.80;99.90
16955;DHT22;8594;52.052;8.354;2023-12-20T00:12:52;8.80;99.90
16955;DHT22;8594;52.052;8.354;2023-12-20T00:15:20;8.80;99.90
16955;DHT22;8594;52.052;8.354;2023-12-20T00:17:46;8.80;99.90
16955;DHT22;8594;52.052;8.354;2023-12-20T00:20:13;8.80;99.90
16955;DHT22;8594;52.052;8.354;2023-12-20T00:22:40;8.70;99.90
16955;DHT22;8594;52.052;8.354;2023-12-20T00:25:07;8.80;99.90
16955;DHT22;8594;52.052;8.354;2023-12-20T00:27:34;8.70;99.90
16955;DHT22;8594;52.052;8.354;2023-12-20T00:30:01;8.50;99.90
16955;DHT22;8594;52.052;8.354;2023-12-20T00:32:30;8.50;99.90
16955;DHT22;8594;52.052;8.354;2023-12-20T00:34:56;8.50;99.90
16955;DHT22;8594;52.052;8.354;2023-12-20T00:37:23;8.50;99.90
16955;DHT22;8594;52.052;8.354;2023-12-20T00:39:50;8.50;99.90
16955;DHT22;8594;52.052;8.354;2023-12-20T00:42:17;8.60;99.90
16955;DHT22;8594;52.052;8.354;2023-12-20T00:44:43;8.60;99.90
16955;DHT22;8594;52.052;8.354;2023-12-20T00:47:10;8.50;99.90
16955;DHT22;8594;52.052;8.354;2023-12-20T00:49:38;8.40;99.90
16955;DHT22;8594;52.052;8.354;2023-12-20T00:52:05;8.30;99.90
16955;DHT22;8594;52.052;8.354;2023-12-20T00:54:32;8.40;99.90
16955;DHT22;8594;52.052;8.354;2023-12-20T00:56:59;8.40;99.90
16955;DHT22;8594;52.052;8.354;2023-12-20T00:59:26;8.60;99.90
16955;DHT22;8594;52.052;8.354;2023-12-20T01:01:52;8.60;99.90
16955;DHT22;8594;52.052;8.354;2023-12-20T01:04:19;8.50;99.90
16955;DHT22;8594;52.052;8.354;2023-12-20T01:06:48;8.60;99.90
16955;DHT22;8594;52.052;8.354;2023-12-20T01:09:14;8.50;99.90
16955;DHT22;8594;52.052;8.354;2023-12-20T01:11:41;8.40;99.90
16955;DHT22;8594;52.052;8.354;2023-12-20T01:14:08;8.20;99.90
16955;DHT22;8594;52.052;8.354;2023-12-20T01:16:34;8.30;99.90
16955;DHT22;8594;52.052;8.354;2023-12-20T01:19:01;8.30;99.90
16955;DHT22;8594;52.052;8.354;2023-12-20T01:21:28;8.40;99.90
16955;DHT22;8594;52.052;8.354;2023-12-20T01:23:56;8.40;99.90
16955;DHT22;8594;52.052;8.354;2023-12-20T01:26:22;8.40;99.90
16955;DHT22;8594;52.052;8.354;2023-12-20T01:28:49;8.50;99.90
16955;DHT22;8594;52.052;8.354;2023-12-20T01:31:16;8.50;99.90
16955;DHT22;8594;52.052;8.354;2023-12-20T01:33:43;8.40;99.90
16955;DHT22;8594;52.052;8.354;2023-12-20T01:36:09;8.30;99.90
16955;DHT22;8594;52.052;8.354;2023-12-20T01:38:36;8.30;99.90
16955;DHT22;8594;52.052;8.354;2023-12-20T01:41:05;8.20;99.90
16955;DHT22;8594;52.052;8.354;2023-12-20T01:43:31;8.30;99.90
16955;DHT22;8594;52.052;8.354;2023-12-20T01:45:58;8.40;99.90
16955;DHT22;8594;52.052;8.354;2023-12-20T01:48:25;8.40;99.90
16955;DHT22;8594;52.052;8.354;2023-12-20T01:50:54;8.30;99.90
16955;DHT22;8594;52.052;8.354;2023-12-20T01:53:23;8.30;99.90
16955;DHT22;8594;52.052;8.354;2023-12-20T01:55:54;8.30;99.90
16955;DHT22;8594;52.052;8.354;2023-12-20T01:58:24;8.20;99.90
16955;DHT22;8594;52.052;8.354;2023-12-20T02:00:52;8.20;99.90
16955;DHT22;8594;52.052;8.354;2023-12-20T02:03:19;8.20;99.90
16955;DHT22;8594;52.052;8.354;2023-12-20T02:05:47;8.20;99.90
16955;DHT22;8594;52.052;8.354;2023-12-20T02:08:14;8.20;99.90
16955;DHT22;8594;52.052;8.354;2023-12-20T02:10:41;8.10;99.90
16955;DHT22;8594;52.052;8.354;2023-12-20T02:13:08;8.10;99.90
16955;DHT22;8594;52.052;8.354;2023-12-20T02:15:36;8.10;99.90
16955;DHT22;8594;52.052;8.354;2023-12-20T02:18:04;8.20;99.90
16955;DHT22;8594;52.052;8.354;2023-12-20T02:20:31;8.40;99.90
16955;DHT22;8594;52.052;8.354;2023-12-20T02:22:59;8.40;99.90
16955;DHT22;8594;52.052;8.354;2023-12-20T02:25:25;8.30;99.90
16955;DHT22;8594;52.052;8.354;2023-12-20T02:27:52;8.20;99.90
16955;DHT22;8594;52.052;8.354;2023-12-20T02:30:19;8.10;99.90
16955;DHT22;8594;52.052;8.354;2023-12-20T02:32:46;8.00;99.90
16955;DHT22;8594;52.052;8.354;2023-12-20T02:35:13;7.90;99.90
16955;DHT22;8594;52.052;8.354;2023-12-20T02:37:40;7.90;99.90
16955;DHT22;8594;52.052;8.354;2023-12-20T02:40:09;7.80;99.90
16955;DHT22;8594;52.052;8.354;2023-12-20T02:42:36;7.80;99.90
16955;DHT22;8594;52.052;8.354;2023-12-20T02:45:03;7.80;99.90
16955;DHT22;8594;52.052;8.354;2023-12-20T02:47:30;7.80;99.90
16955;DHT22;8594;52.052;8.354;2023-12-20T02:49:57;7.80;99.90
16955;DHT22;8594;52.052;8.354;2023-12-20T02:52:23;7.70;99.90
16955;DHT22;8594;52.052;8.354;2023-12-20T02:54:51;7.80;99.90
16955;DHT22;8594;52.052;8.354;2023-12-20T02:57:19;7.90;99.90
16955;DHT22;8594;52.052;8.354;2023-12-20T02:59:45;7.80;99.90
16955;DHT22;8594;52.052;8.354;2023-12-20T03:02:12;7.80;99.90
16955;DHT22;8594;52.052;8.354;2023-12-20T03:04:39;7.60;99.90
16955;DHT22;8594;52.052;8.354;2023-12-20T03:07:05;7.70;99.90
16955;DHT22;8594;52.052;8.354;2023-12-20T03:09:32;7.50;99.90
16955;DHT22;8594;52.052;8.354;2023-12-20T03:11:59;7.40;99.90
16955;DHT22;8594;52.052;8.354;2023-12-20T03:14:27;7.60;99.90
16955;DHT22;8594;52.052;8.354;2023-12-20T03:16:53;7.70;99.90
16955;DHT22;8594;52.052;8.354;2023-12-20T03:19:20;7.60;99.90
16955;DHT22;8594;52.052;8.354;2023-12-20T03:21:47;7.60;99.90
16955;DHT22;8594;52.052;8.354;2023-12-20T03:24:14;7.50;99.90
16955;DHT22;8594;52.052;8.354;2023-12-20T03:26:40;7.50;99.90
16955;DHT22;8594;52.052;8.354;2023-12-20T03:29:07;7.40;99.90
16955;DHT22;8594;52.052;8.354;2023-12-20T03:31:35;7.40;99.90
16955;DHT22;8594;52.052;8.354;2023-12-20T03:34:02;7.30;99.90
16955;DHT22;8594;52.052;8.354;2023-12-20T03:36:28;7.30;99.90
16955;DHT22;8594;52.052;8.354;2023-12-20T03:38:55;7.40;99.90
16955;DHT22;8594;52.052;8.354;2023-12-20T03:41:22;7.50;99.90
16955;DHT22;8594;52.052;8.354;2023-12-20T03:43:48;7.50;99.90
16955;DHT22;8594;52.052;8.354;2023-12-20T03:46:15;7.30;99.90
16955;DHT22;8594;52.052;8.354;2023-12-20T03:48:43;7.50;99.90
16955;DHT22;8594;52.052;8.354;2023-12-20T03:51:10;7.40;99.90
16955;DHT22;8594;52.052;8.354;2023-12-20T03:53:36;7.30;99.90
16955;DHT22;8594;52.052;8.354;2023-12-20T03:56:05;7.30;99.90
16955;DHT22;8594;52.052;8.354;2023-12-20T03:58:32;7.40;99.90
16955;DHT22;8594;52.052;8.354;2023-12-20T04:00:59;7.40;99.90
16955;DHT22;8594;52.052;8.354;2023-12-20T04:03:25;7.30;99.90
16955;DHT22;8594;52.052;8.354;2023-12-20T04:05:54;7.30;99.90
16955;DHT22;8594;52.052;8.354;2023-12-20T04:08:20;7.30;99.90
16955;DHT22;8594;52.052;8.354;2023-12-20T04:10:47;7.10;99.90
16955;DHT22;8594;52.052;8.354;2023-12-20T04:13:14;7.10;99.90
16955;DHT22;8594;52.052;8.354;2023-12-20T04:15:40;7.20;99.90
16955;DHT22;8594;52.052;8.354;2023-12-20T04:18:07;7.10;99.90
16955;DHT22;8594;52.052;8.354;2023-12-20T04:20:34;7.10;99.90
16955;DHT22;8594;52.052;8.354;2023-12-20T04:23:02;7.10;99.90
16955;DHT22;8594;52.052;8.354;2023-12-20T04:25:29;7.20;99.90
16955;DHT22;8594;52.052;8.354;2023-12-20T04:27:55;7.00;99.90
16955;DHT22;8594;52.052;8.354;2023-12-20T04:30:22;7.10;99.90
16955;DHT22;8594;52.052;8.354;2023-12-20T04:32:49;7.30;99.90
16955;DHT22;8594;52.052;8.354;2023-12-20T04:35:16;7.30;99.90
16955;DHT22;8594;52.052;8.354;2023-12-20T04:37:41;7.40;99.90
16955;DHT22;8594;52.052;8.354;2023-12-20T04:40:10;7.10;99.90
16955;DHT22;8594;52.052;8.354;2023-12-20T04:42:37;7.00;99.90
16955;DHT22;8594;52.052;8.354;2023-12-20T04:45:04;7.00;99.90
16955;DHT22;8594;52.052;8.354;2023-12-20T04:47:31;7.00;99.90
16955;DHT22;8594;52.052;8.354;2023-12-20T04:49:58;7.00;99.90
16955;DHT22;8594;52.052;8.354;2023-12-20T04:52:25;7.00;99.90
16955;DHT22;8594;52.052;8.354;2023-12-20T04:54:52;7.10;99.90
16955;DHT22;8594;52.052;8.354;2023-12-20T04:57:20;7.00;99.90
16955;DHT22;8594;52.052;8.354;2023-12-20T04:59:47;7.10;99.90
16955;DHT22;8594;52.052;8.354;2023-12-20T05:02:14;7.00;99.90
16955;DHT22;8594;52.052;8.354;2023-12-20T05:04:41;7.00;99.90
16955;DHT22;8594;52.052;8.354;2023-12-20T05:07:07;7.10;99.90
16955;DHT22;8594;52.052;8.354;2023-12-20T05:09:34;7.10;99.90
16955;DHT22;8594;52.052;8.354;2023-12-20T05:12:01;7.00;99.90
16955;DHT22;8594;52.052;8.354;2023-12-20T05:14:29;6.90;99.90
16955;DHT22;8594;52.052;8.354;2023-12-20T05:16:56;7.00;99.90
16955;DHT22;8594;52.052;8.354;2023-12-20T05:19:22;7.00;99.90
16955;DHT22;8594;52.052;8.354;2023-12-20T05:21:49;7.10;99.90
16955;DHT22;8594;52.052;8.354;2023-12-20T05:24:16;7.00;99.90
16955;DHT22;8594;52.052;8.354;2023-12-20T05:26:43;7.10;99.90
16955;DHT22;8594;52.052;8.354;2023-12-20T05:29:10;7.20;99.90
16955;DHT22;8594;52.052;8.354;2023-12-20T05:31:38;7.00;99.90
16955;DHT22;8594;52.052;8.354;2023-12-20T05:34:04;6.90;99.90
16955;DHT22;8594;52.052;8.354;2023-12-20T05:36:31;6.90;99.90
16955;DHT22;8594;52.052;8.354;2023-12-20T05:38:58;7.10;99.90
16955;DHT22;8594;52.052;8.354;2023-12-20T05:41:24;7.00;99.90
16955;DHT22;8594;52.052;8.354;2023-12-20T05:43:51;7.00;99.90
16955;DHT22;8594;52.052;8.354;2023-12-20T05:46:18;7.20;99.90
16955;DHT22;8594;52.052;8.354;2023-12-20T05:48:46;7.30;99.90
16955;DHT22;8594;52.052;8.354;2023-12-20T05:51:12;7.10;99.90
16955;DHT22;8594;52.052;8.354;2023-12-20T05:53:39;7.20;99.90
16955;DHT22;8594;52.052;8.354;2023-12-20T05:56:06;7.30;99.90
16955;DHT22;8594;52.052;8.354;2023-12-20T05:58:33;7.20;99.90
16955;DHT22;8594;52.052;8.354;2023-12-20T06:01:00;7.20;99.90
16955;DHT22;8594;52.052;8.354;2023-12-20T06:03:26;7.30;99.90
16955;DHT22;8594;52.052;8.354;2023-12-20T06:05:54;7.30;99.90
16955;DHT22;8594;52.052;8.354;2023-12-20T06:08:21;7.30;99.90
16955;DHT22;8594;52.052;8.354;2023-12-20T06:10:48;7.20;99.90
16955;DHT22;8594;52.052;8.354;2023-12-20T06:13:15;7.20;99.90
16955;DHT22;8594;52.052;8.354;2023-12-20T06:15:42;7.20;99.90
16955;DHT22;8594;52.052;8.354;2023-12-20T06:18:08;7.30;99.90
16955;DHT22;8594;52.052;8.354;2023-12-20T06:20:35;7.30;99.90
16955;DHT22;8594;52.052;8.354;2023-12-20T06:23:04;7.10;99.90
16955;DHT22;8594;52.052;8.354;2023-12-20T06:25:30;6.90;99.90
16955;DHT22;8594;52.052;8.354;2023-12-20T06:27:57;7.00;99.90
16955;DHT22;8594;52.052;8.354;2023-12-20T06:30:24;7.10;99.90
16955;DHT22;8594;52.052;8.354;2023-12-20T06:32:53;7.20;99.90
16955;DHT22;8594;52.052;8.354;2023-12-20T06:35:20;7.10;99.90
16955;DHT22;8594;52.052;8.354;2023-12-20T06:37:47;7.30;99.90
16955;DHT22;8594;52.052;8.354;2023-12-20T06:40:15;7.20;99.90
16955;DHT22;8594;52.052;8.354;2023-12-20T06:42:42;7.40;99.90
16955;DHT22;8594;52.052;8.354;2023-12-20T06:45:10;7.30;99.90
16955;DHT22;8594;52.052;8.354;2023-12-20T06:47:38;7.20;99.90
16955;DHT22;8594;52.052;8.354;2023-12-20T06:50:05;7.30;99.90
16955;DHT22;8594;52.052;8.354;2023-12-20T06:52:33;7.20;99.90
16955;DHT22;8594;52.052;8.354;2023-12-20T06:55:00;7.20;99.90
16955;DHT22;8594;52.052;8.354;2023-12-20T06:57:29;7.20;99.90
16955;DHT22;8594;52.052;8.354;2023-12-20T06:59:56;7.30;99.90
16955;DHT22;8594;52.052;8.354;2023-12-20T07:02:23;7.20;99.90
16955;DHT22;8594;52.052;8.354;2023-12-20T07:04:50;7.20;99.90
16955;DHT22;8594;52.052;8.354;2023-12-20T07:07:16;7.20;99.90
16955;DHT22;8594;52.052;8.354;2023-12-20T07:09:43;7.20;99.90
16955;DHT22;8594;52.052;8.354;2023-12-20T07:12:10;7.10;99.90
16955;DHT22;8594;52.052;8.354;2023-12-20T07:14:38;7.00;99.90
16955;DHT22;8594;52.052;8.354;2023-12-20T07:17:04;7.10;99.90
16955;DHT22;8594;52.052;8.354;2023-12-20T07:19:33;7.10;99.90
16955;DHT22;8594;52.052;8.354;2023-12-20T07:21:59;7.20;99.90
16955;DHT22;8594;52.052;8.354;2023-12-20T07:24:26;7.20;99.90
16955;DHT22;8594;52.052;8.354;2023-12-20T07:26:53;7.20;99.90
16955;DHT22;8594;52.052;8.354;2023-12-20T07:29:19;7.20;99.90
16955;DHT22;8594;52.052;8.354;2023-12-20T07:31:47;7.30;99.90
16955;DHT22;8594;52.052;8.354;2023-12-20T07:34:14;7.20;99.90
16955;DHT22;8594;52.052;8.354;2023-12-20T07:36:41;7.30;99.90
16955;DHT22;8594;52.052;8.354;2023-12-20T07:39:08;7.20;99.90
16955;DHT22;8594;52.052;8.354;2023-12-20T07:41:35;7.20;99.90
16955;DHT22;8594;52.052;8.354;2023-12-20T07:44:02;7.20;99.90
16955;DHT22;8594;52.052;8.354;2023-12-20T07:46:30;7.30;99.90
16955;DHT22;8594;52.052;8.354;2023-12-20T07:48:58;7.20;99.90
16955;DHT22;8594;52.052;8.354;2023-12-20T07:51:24;7.20;99.90
16955;DHT22;8594;52.052;8.354;2023-12-20T07:53:51;7.20;99.90
16955;DHT22;8594;52.052;8.354;2023-12-20T07:56:19;7.20;99.90
16955;DHT22;8594;52.052;8.354;2023-12-20T07:58:46;7.10;99.90
16955;DHT22;8594;52.052;8.354;2023-12-20T08:01:16;7.00;99.90
16955;DHT22;8594;52.052;8.354;2023-12-20T08:03:43;7.10;99.90
16955;DHT22;8594;52.052;8.354;2023-12-20T08:06:11;7.20;99.90
16955;DHT22;8594;52.052;8.354;2023-12-20T08:08:38;7.30;99.90
16955;DHT22;8594;52.052;8.354;2023-12-20T08:11:05;7.30;99.90
16955;DHT22;8594;52.052;8.354;2023-12-20T08:13:31;7.30;99.90
16955;DHT22;8594;52.052;8.354;2023-12-20T08:15:58;7.40;99.90
16955;DHT22;8594;52.052;8.354;2023-12-20T08:18:25;7.40;99.90
16955;DHT22;8594;52.052;8.354;2023-12-20T08:20:52;7.20;99.90
16955;DHT22;8594;52.052;8.354;2023-12-20T08:23:20;7.20;99.90
16955;DHT22;8594;52.052;8.354;2023-12-20T08:25:47;7.20;99.90
16955;DHT22;8594;52.052;8.354;2023-12-20T08:28:14;7.40;99.90
16955;DHT22;8594;52.052;8.354;2023-12-20T08:30:41;7.50;99.90
16955;DHT22;8594;52.052;8.354;2023-12-20T08:33:08;7.30;99.90
16955;DHT22;8594;52.052;8.354;2023-12-20T08:35:38;7.30;99.90
16955;DHT22;8594;52.052;8.354;2023-12-20T08:38:05;7.50;99.90
16955;DHT22;8594;52.052;8.354;2023-12-20T08:40:33;7.40;99.90
16955;DHT22;8594;52.052;8.354;2023-12-20T08:43:00;7.20;99.90
16955;DHT22;8594;52.052;8.354;2023-12-20T08:45:27;7.20;99.90
16955;DHT22;8594;52.052;8.354;2023-12-20T08:47:54;7.20;99.90
16955;DHT22;8594;52.052;8.354;2023-12-20T08:50:21;7.30;99.90
16955;DHT22;8594;52.052;8.354;2023-12-20T08:52:47;7.50;99.90
16955;DHT22;8594;52.052;8.354;2023-12-20T08:55:14;7.60;99.90
16955;DHT22;8594;52.052;8.354;2023-12-20T08:57:44;7.60;99.90
16955;DHT22;8594;52.052;8.354;2023-12-20T09:00:12;7.50;99.90
16955;DHT22;8594;52.052;8.354;2023-12-20T09:02:39;7.40;99.90
16955;DHT22;8594;52.052;8.354;2023-12-20T09:05:07;7.40;99.90
16955;DHT22;8594;52.052;8.354;2023-12-20T09:07:34;7.30;99.90
16955;DHT22;8594;52.052;8.354;2023-12-20T09:10:01;7.30;99.90
16955;DHT22;8594;52.052;8.354;2023-12-20T09:12:28;7.40;99.90
16955;DHT22;8594;52.052;8.354;2023-12-20T09:14:56;7.50;99.90
16955;DHT22;8594;52.052;8.354;2023-12-20T09:17:22;7.50;99.90
16955;DHT22;8594;52.052;8.354;2023-12-20T09:19:49;7.50;99.90
16955;DHT22;8594;52.052;8.354;2023-12-20T09:22:17;7.70;99.90
16955;DHT22;8594;52.052;8.354;2023-12-20T09:24:44;7.70;99.90
16955;DHT22;8594;52.052;8.354;2023-12-20T09:27:11;7.60;99.90
16955;DHT22;8594;52.052;8.354;2023-12-20T09:29:38;7.60;99.90
16955;DHT22;8594;52.052;8.354;2023-12-20T09:32:06;7.50;99.90
16955;DHT22;8594;52.052;8.354;2023-12-20T09:34:33;7.60;99.90
16955;DHT22;8594;52.052;8.354;2023-12-20T09:37:00;7.60;99.90
16955;DHT22;8594;52.052;8.354;2023-12-20T09:39:28;7.50;99.90
16955;DHT22;8594;52.052;8.354;2023-12-20T09:42:00;7.70;99.90
16955;DHT22;8594;52.052;8.354;2023-12-20T09:44:29;7.50;99.90
16955;DHT22;8594;52.052;8.354;2023-12-20T09:46:57;7.40;99.90
16955;DHT22;8594;52.052;8.354;2023-12-20T09:49:27;7.50;99.90
16955;DHT22;8594;52.052;8.354;2023-12-20T09:51:54;7.40;99.90
16955;DHT22;8594;52.052;8.354;2023-12-20T09:54:23;7.40;99.90
16955;DHT22;8594;52.052;8.354;2023-12-20T09:56:50;7.40;99.90
16955;DHT22;8594;52.052;8.354;2023-12-20T09:59:17;7.40;99.90
16955;DHT22;8594;52.052;8.354;2023-12-20T10:01:44;7.40;99.90
16955;DHT22;8594;52.052;8.354;2023-12-20T10:04:12;7.40;99.90
16955;DHT22;8594;52.052;8.354;2023-12-20T10:06:41;7.50;99.90
16955;DHT22;8594;52.052;8.354;2023-12-20T10:09:09;7.40;99.90
16955;DHT22;8594;52.052;8.354;2023-12-20T10:11:37;7.50;99.90
16955;DHT22;8594;52.052;8.354;2023-12-20T10:14:05;7.60;99.90
16955;DHT22;8594;52.052;8.354;2023-12-20T10:16:33;7.70;99.90
16955;DHT22;8594;52.052;8.354;2023-12-20T10:19:00;7.60;99.90
16955;DHT22;8594;52.052;8.354;2023-12-20T10:21:27;7.70;99.90
16955;DHT22;8594;52.052;8.354;2023-12-20T10:23:56;7.80;99.90
16955;DHT22;8594;52.052;8.354;2023-12-20T10:26:25;7.80;99.90
16955;DHT22;8594;52.052;8.354;2023-12-20T10:28:53;7.90;99.90
16955;DHT22;8594;52.052;8.354;2023-12-20T10:31:29;8.00;99.90
16955;DHT22;8594;52.052;8.354;2023-12-20T10:33:57;7.80;99.90
16955;DHT22;8594;52.052;8.354;2023-12-20T10:36:25;7.60;99.90
16955;DHT22;8594;52.052;8.354;2023-12-20T10:38:53;7.50;99.90
16955;DHT22;8594;52.052;8.354;2023-12-20T10:41:25;7.70;99.90
16955;DHT22;8594;52.052;8.354;2023-12-20T10:43:56;7.70;99.90
16955;DHT22;8594;52.052;8.354;2023-12-20T10:46:26;7.70;99.90
16955;DHT22;8594;52.052;8.354;2023-12-20T10:48:54;7.70;99.90
16955;DHT22;8594;52.052;8.354;2023-12-20T10:51:21;7.60;99.90
16955;DHT22;8594;52.052;8.354;2023-12-20T10:53:50;7.70;99.90
16955;DHT22;8594;52.052;8.354;2023-12-20T10:56:20;7.70;99.90
16955;DHT22;8594;52.052;8.354;2023-12-20T10:58:49;7.80;99.90
16955;DHT22;8594;52.052;8.354;2023-12-20T11:01:17;7.80;99.90
16955;DHT22;8594;52.052;8.354;2023-12-20T11:03:48;7.70;99.90
16955;DHT22;8594;52.052;8.354;2023-12-20T11:06:27;7.80;99.90
16955;DHT22;8594;52.052;8.354;2023-12-20T11:09:06;7.80;99.90
16955;DHT22;8594;52.052;8.354;2023-12-20T11:11:52;7.70;99.90
16955;DHT22;8594;52.052;8.354;2023-12-20T11:14:32;7.80;99.90
16955;DHT22;8594;52.052;8.354;2023-12-20T11:17:07;8.00;99.90
16955;DHT22;8594;52.052;8.354;2023-12-20T11:19:36;8.00;99.90
16955;DHT22;8594;52.052;8.354;2023-12-20T11:22:05;8.00;99.90
16955;DHT22;8594;52.052;8.354;2023-12-20T11:24:33;7.80;99.90
16955;DHT22;8594;52.052;8.354;2023-12-20T11:27:04;7.60;99.90
16955;DHT22;8594;52.052;8.354;2023-12-20T11:29:32;7.70;99.90
16955;DHT22;8594;52.052;8.354;2023-12-20T11:32:01;7.80;99.90
16955;DHT22;8594;52.052;8.354;2023-12-20T11:34:31;7.80;99.90
16955;DHT22;8594;52.052;8.354;2023-12-20T11:37:00;7.80;99.90
16955;DHT22;8594;52.052;8.354;2023-12-20T11:39:28;8.00;99.90
16955;DHT22;8594;52.052;8.354;2023-12-20T11:41:57;8.10;99.90
16955;DHT22;8594;52.052;8.354;2023-12-20T11:44:30;8.10;99.90
16955;DHT22;8594;52.052;8.354;2023-12-20T11:46:57;8.00;99.90
16955;DHT22;8594;52.052;8.354;2023-12-20T11:49:25;8.00;99.90
16955;DHT22;8594;52.052;8.354;2023-12-20T11:51:51;8.00;99.90
16955;DHT22;8594;52.052;8.354;2023-12-20T11:54:18;7.90;99.90
16955;DHT22;8594;52.052;8.354;2023-12-20T11:56:46;8.00;99.90
16955;DHT22;8594;52.052;8.354;2023-12-20T11:59:14;8.10;99.90
16955;DHT22;8594;52.052;8.354;2023-12-20T12:01:49;8.20;99.90
16955;DHT22;8594;52.052;8.354;2023-12-20T12:04:16;8.10;99.90
16955;DHT22;8594;52.052;8.354;2023-12-20T12:06:43;8.20;99.90
16955;DHT22;8594;52.052;8.354;2023-12-20T12:09:10;8.20;99.90
16955;DHT22;8594;52.052;8.354;2023-12-20T12:11:37;8.30;99.90
16955;DHT22;8594;52.052;8.354;2023-12-20T12:14:04;8.20;99.90
16955;DHT22;8594;52.052;8.354;2023-12-20T12:16:31;8.20;99.90
16955;DHT22;8594;52.052;8.354;2023-12-20T12:18:59;8.10;99.90
16955;DHT22;8594;52.052;8.354;2023-12-20T12:21:26;8.20;99.90
16955;DHT22;8594;52.052;8.354;2023-12-20T12:23:52;8.30;99.90
16955;DHT22;8594;52.052;8.354;2023-12-20T12:26:19;8.30;99.90
16955;DHT22;8594;52.052;8.354;2023-12-20T12:28:46;8.20;99.90
16955;DHT22;8594;52.052;8.354;2023-12-20T12:31:14;8.20;99.90
16955;DHT22;8594;52.052;8.354;2023-12-20T12:33:41;8.30;99.90
16955;DHT22;8594;52.052;8.354;2023-12-20T12:36:10;8.10;99.90
16955;DHT22;8594;52.052;8.354;2023-12-20T12:38:41;7.90;99.90
16955;DHT22;8594;52.052;8.354;2023-12-20T12:41:08;8.00;99.90
16955;DHT22;8594;52.052;8.354;2023-12-20T12:43:36;8.20;99.90
16955;DHT22;8594;52.052;8.354;2023-12-20T12:46:03;8.30;99.90
16955;DHT22;8594;52.052;8.354;2023-12-20T12:48:30;8.30;99.90
16955;DHT22;8594;52.052;8.354;2023-12-20T12:50:57;8.30;99.90
16955;DHT22;8594;52.052;8.354;2023-12-20T12:53:26;8.30;99.90
16955;DHT22;8594;52.052;8.354;2023-12-20T12:55:53;8.20;99.90
16955;DHT22;8594;52.052;8.354;2023-12-20T12:58:20;8.30;99.90
16955;DHT22;8594;52.052;8.354;2023-12-20T13:00:47;8.20;99.90
16955;DHT22;8594;52.052;8.354;2023-12-20T13:03:14;8.30;99.90
16955;DHT22;8594;52.052;8.354;2023-12-20T13:05:41;8.20;99.90
16955;DHT22;8594;52.052;8.354;2023-12-20T13:08:08;8.30;99.90
16955;DHT22;8594;52.052;8.354;2023-12-20T13:10:38;8.20;99.90
16955;DHT22;8594;52.052;8.354;2023-12-20T13:13:05;8.10;99.90
16955;DHT22;8594;52.052;8.354;2023-12-20T13:15:32;7.90;99.90
16955;DHT22;8594;52.052;8.354;2023-12-20T13:17:58;7.90;99.90
16955;DHT22;8594;52.052;8.354;2023-12-20T13:20:26;7.90;99.90
16955;DHT22;8594;52.052;8.354;2023-12-20T13:22:53;7.80;99.90
16955;DHT22;8594;52.052;8.354;2023-12-20T13:25:19;7.80;99.90
16955;DHT22;8594;52.052;8.354;2023-12-20T13:27:47;7.60;99.90
16955;DHT22;8594;52.052;8.354;2023-12-20T13:30:16;7.70;99.90
16955;DHT22;8594;52.052;8.354;2023-12-20T13:32:44;7.70;99.90
16955;DHT22;8594;52.052;8.354;2023-12-20T13:35:10;7.60;99.90
16955;DHT22;8594;52.052;8.354;2023-12-20T13:37:38;7.50;99.90
16955;DHT22;8594;52.052;8.354;2023-12-20T13:40:06;7.40;99.90
16955;DHT22;8594;52.052;8.354;2023-12-20T13:42:34;7.40;99.90
16955;DHT22;8594;52.052;8.354;2023-12-20T13:45:03;7.40;99.90
16955;DHT22;8594;52.052;8.354;2023-12-20T13:47:30;7.60;99.90
16955;DHT22;8594;52.052;8.354;2023-12-20T13:49:57;7.40;99.90
16955;DHT22;8594;52.052;8.354;2023-12-20T13:52:24;7.30;99.90
16955;DHT22;8594;52.052;8.354;2023-12-20T13:54:50;7.40;99.90
16955;DHT22;8594;52.052;8.354;2023-12-20T13:57:17;7.50;99.90
16955;DHT22;8594;52.052;8.354;2023-12-20T13:59:44;7.50;99.90
16955;DHT22;8594;52.052;8.354;2023-12-20T14:02:12;7.60;99.90
16955;DHT22;8594;52.052;8.354;2023-12-20T14:04:39;7.60;99.90
16955;DHT22;8594;52.052;8.354;2023-12-20T14:07:06;7.70;99.90
16955;DHT22;8594;52.052;8.354;2023-12-20T14:09:33;7.60;99.90
16955;DHT22;8594;52.052;8.354;2023-12-20T14:12:00;7.60;99.90
16955;DHT22;8594;52.052;8.354;2023-12-20T14:14:27;7.60;99.90
16955;DHT22;8594;52.052;8.354;2023-12-20T14:16:53;7.70;99.90
16955;DHT22;8594;52.052;8.354;2023-12-20T14:19:21;7.70;99.90
16955;DHT22;8594;52.052;8.354;2023-12-20T14:21:48;7.80;99.90
16955;DHT22;8594;52.052;8.354;2023-12-20T14:24:15;7.70;99.90
16955;DHT22;8594;52.052;8.354;2023-12-20T14:26:41;7.60;99.90
16955;DHT22;8594;52.052;8.354;2023-12-20T14:29:08;7.60;99.90
16955;DHT22;8594;52.052;8.354;2023-12-20T14:31:35;7.60;99.90
16955;DHT22;8594;52.052;8.354;2023-12-20T14:34:03;7.50;99.90
16955;DHT22;8594;52.052;8.354;2023-12-20T14:36:31;7.40;99.90
16955;DHT22;8594;52.052;8.354;2023-12-20T14:38:58;7.40;99.90
16955;DHT22;8594;52.052;8.354;2023-12-20T14:41:26;7.40;99.90
16955;DHT22;8594;52.052;8.354;2023-12-20T14:43:53;7.60;99.90
16955;DHT22;8594;52.052;8.354;2023-12-20T14:46:20;7.50;99.90
16955;DHT22;8594;52.052;8.354;2023-12-20T14:48:47;7.60;99.90
16955;DHT22;8594;52.052;8.354;2023-12-20T14:51:15;7.70;99.90
16955;DHT22;8594;52.052;8.354;2023-12-20T14:53:44;7.60;99.90
16955;DHT22;8594;52.052;8.354;2023-12-20T14:56:12;7.60;99.90
16955;DHT22;8594;52.052;8.354;2023-12-20T14:58:40;7.50;99.90
16955;DHT22;8594;52.052;8.354;2023-12-20T15:01:07;7.50;99.90
16955;DHT22;8594;52.052;8.354;2023-12-20T15:03:34;7.40;99.90
16955;DHT22;8594;52.052;8.354;2023-12-20T15:06:01;7.40;99.90
16955;DHT22;8594;52.052;8.354;2023-12-20T15:08:27;7.50;99.90
16955;DHT22;8594;52.052;8.354;2023-12-20T15:10:55;7.50;99.90
16955;DHT22;8594;52.052;8.354;2023-12-20T15:13:22;7.50;99.90
16955;DHT22;8594;52.052;8.354;2023-12-20T15:15:49;7.50;99.90
16955;DHT22;8594;52.052;8.354;2023-12-20T15:18:15;7.50;99.90
16955;DHT22;8594;52.052;8.354;2023-12-20T15:20:42;7.50;99.90
16955;DHT22;8594;52.052;8.354;2023-12-20T15:23:10;7.40;99.90
16955;DHT22;8594;52.052;8.354;2023-12-20T15:25:37;7.40;99.90
16955;DHT22;8594;52.052;8.354;2023-12-20T15:28:05;7.60;99.90
16955;DHT22;8594;52.052;8.354;2023-12-20T15:30:32;7.60;99.90
16955;DHT22;8594;52.052;8.354;2023-12-20T15:33:01;7.70;99.90
16955;DHT22;8594;52.052;8.354;2023-12-20T15:35:28;7.50;99.90
16955;DHT22;8594;52.052;8.354;2023-12-20T15:37:56;7.30;99.90
16955;DHT22;8594;52.052;8.354;2023-12-20T15:40:23;7.20;99.90
16955;DHT22;8594;52.052;8.354;2023-12-20T15:42:50;7.20;99.90
16955;DHT22;8594;52.052;8.354;2023-12-20T15:45:18;7.10;99.90
16955;DHT22;8594;52.052;8.354;2023-12-20T15:47:45;7.30;99.90
16955;DHT22;8594;52.052;8.354;2023-12-20T15:50:12;7.20;99.90
16955;DHT22;8594;52.052;8.354;2023-12-20T15:52:38;7.30;99.90
16955;DHT22;8594;52.052;8.354;2023-12-20T15:55:07;7.40;99.90
16955;DHT22;8594;52.052;8.354;2023-12-20T15:57:34;7.40;99.90
16955;DHT22;8594;52.052;8.354;2023-12-20T16:00:02;7.20;99.90
16955;DHT22;8594;52.052;8.354;2023-12-20T16:02:31;7.20;99.90